sensor_id;sensor_type;location;lat;lon;timestamp;P1;durP1;ratioP1;P2;durP2;ratioP2
74632;SDS011;63139;52.018;8.552;2023-09-07T00:02:12;7.30;;;5.45;;
74632;SDS011;63139;52.018;8.552;2023-09-07T00:04:40;8.05;;;5.63;;
74632;SDS011;63139;52.018;8.552;2023-09-07T00:07:09;6.18;;;5.40;;
74632;SDS011;63139;52.018;8.552;2023-09-07T00:09:37;7.00;;;5.63;;
74632;SDS011;63139;52.018;8.552;2023-09-07T00:12:05;6.88;;;5.45;;
74632;SDS011;63139;52.018;8.552;2023-09-07T00:14:35;8.20;;;6.00;;
74632;SDS011;63139;52.018;8.552;2023-09-07T00:17:02;6.28;;;5.53;;
74632;SDS011;63139;52.018;8.552;2023-09-07T00:19:31;6.93;;;5.80;;
74632;SDS011;63139;52.018;8.552;2023-09-07T00:22:00;7.75;;;5.15;;
74632;SDS011;63139;52.018;8.552;2023-09-07T00:24:28;7.25;;;5.45;;
74632;SDS011;63139;52.018;8.552;2023-09-07T00:26:57;7.32;;;6.18;;
74632;SDS011;63139;52.018;8.552;2023-09-07T00:29:25;8.32;;;5.78;;
74632;SDS011;63139;52.018;8.552;2023-09-07T00:31:54;7.05;;;5.70;;
74632;SDS011;63139;52.018;8.552;2023-09-07T00:34:22;6.60;;;5.60;;
74632;SDS011;63139;52.018;8.552;2023-09-07T00:36:50;7.43;;;5.65;;
74632;SDS011;63139;52.018;8.552;2023-09-07T00:39:18;9.73;;;6.18;;
74632;SDS011;63139;52.018;8.552;2023-09-07T00:41:45;8.98;;;6.43;;
74632;SDS011;63139;52.018;8.552;2023-09-07T00:44:13;10.52;;;7.22;;
74632;SDS011;63139;52.018;8.552;2023-09-07T00:46:41;9.93;;;6.15;;
74632;SDS011;63139;52.018;8.552;2023-09-07T00:49:12;9.13;;;6.00;;
74632;SDS011;63139;52.018;8.552;2023-09-07T00:51:40;8.73;;;6.30;;
74632;SDS011;63139;52.018;8.552;2023-09-07T00:54:08;11.73;;;6.93;;
74632;SDS011;63139;52.018;8.552;2023-09-07T00:56:35;11.38;;;6.85;;
74632;SDS011;63139;52.018;8.552;2023-09-07T00:59:03;8.63;;;6.28;;
74632;SDS011;63139;52.018;8.552;2023-09-07T01:01:33;9.77;;;6.53;;
74632;SDS011;63139;52.018;8.552;2023-09-07T01:04:03;9.10;;;6.38;;
74632;SDS011;63139;52.018;8.552;2023-09-07T01:06:35;10.02;;;7.00;;
74632;SDS011;63139;52.018;8.552;2023-09-07T01:09:06;9.85;;;7.45;;
74632;SDS011;63139;52.018;8.552;2023-09-07T01:11:39;14.35;;;7.72;;
74632;SDS011;63139;52.018;8.552;2023-09-07T01:14:07;15.13;;;9.25;;
74632;SDS011;63139;52.018;8.552;2023-09-07T01:16:35;11.77;;;7.57;;
74632;SDS011;63139;52.018;8.552;2023-09-07T01:19:05;12.05;;;7.43;;
74632;SDS011;63139;52.018;8.552;2023-09-07T01:21:35;13.55;;;8.70;;
74632;SDS011;63139;52.018;8.552;2023-09-07T01:24:05;12.43;;;8.02;;
74632;SDS011;63139;52.018;8.552;2023-09-07T01:26:35;13.10;;;8.27;;
74632;SDS011;63139;52.018;8.552;2023-09-07T01:29:06;11.52;;;7.38;;
74632;SDS011;63139;52.018;8.552;2023-09-07T01:31:35;10.55;;;7.35;;
74632;SDS011;63139;52.018;8.552;2023-09-07T01:34:05;11.23;;;7.28;;
74632;SDS011;63139;52.018;8.552;2023-09-07T01:36:35;11.52;;;6.78;;
74632;SDS011;63139;52.018;8.552;2023-09-07T01:39:03;9.65;;;6.80;;
74632;SDS011;63139;52.018;8.552;2023-09-07T01:48:50;11.15;;;6.85;;
74632;SDS011;63139;52.018;8.552;2023-09-07T01:51:18;9.32;;;6.53;;
74632;SDS011;63139;52.018;8.552;2023-09-07T01:53:48;8.43;;;6.05;;
74632;SDS011;63139;52.018;8.552;2023-09-07T01:56:16;12.43;;;7.00;;
74632;SDS011;63139;52.018;8.552;2023-09-07T01:58:44;8.30;;;6.68;;
74632;SDS011;63139;52.018;8.552;2023-09-07T02:01:21;8.45;;;6.32;;
74632;SDS011;63139;52.018;8.552;2023-09-07T02:03:50;10.23;;;6.03;;
74632;SDS011;63139;52.018;8.552;2023-09-07T02:06:18;7.00;;;5.70;;
74632;SDS011;63139;52.018;8.552;2023-09-07T02:08:48;7.65;;;6.13;;
74632;SDS011;63139;52.018;8.552;2023-09-07T02:11:16;9.38;;;5.85;;
74632;SDS011;63139;52.018;8.552;2023-09-07T02:13:45;9.63;;;6.40;;
74632;SDS011;63139;52.018;8.552;2023-09-07T02:16:14;10.20;;;6.40;;
74632;SDS011;63139;52.018;8.552;2023-09-07T02:18:43;14.25;;;7.53;;
74632;SDS011;63139;52.018;8.552;2023-09-07T02:21:13;11.02;;;7.35;;
74632;SDS011;63139;52.018;8.552;2023-09-07T02:23:42;13.05;;;7.28;;
74632;SDS011;63139;52.018;8.552;2023-09-07T02:26:11;10.25;;;7.30;;
74632;SDS011;63139;52.018;8.552;2023-09-07T02:28:39;10.25;;;6.85;;
74632;SDS011;63139;52.018;8.552;2023-09-07T02:31:07;17.80;;;8.45;;
74632;SDS011;63139;52.018;8.552;2023-09-07T02:33:35;15.30;;;8.35;;
74632;SDS011;63139;52.018;8.552;2023-09-07T02:36:03;15.27;;;8.52;;
74632;SDS011;63139;52.018;8.552;2023-09-07T02:38:31;15.85;;;8.18;;
74632;SDS011;63139;52.018;8.552;2023-09-07T02:41:00;9.68;;;7.05;;
74632;SDS011;63139;52.018;8.552;2023-09-07T02:43:30;11.60;;;6.72;;
74632;SDS011;63139;52.018;8.552;2023-09-07T02:45:58;10.10;;;7.63;;
74632;SDS011;63139;52.018;8.552;2023-09-07T02:48:26;11.05;;;6.85;;
74632;SDS011;63139;52.018;8.552;2023-09-07T02:50:54;12.75;;;7.78;;
74632;SDS011;63139;52.018;8.552;2023-09-07T02:53:25;12.50;;;7.15;;
74632;SDS011;63139;52.018;8.552;2023-09-07T02:55:53;10.13;;;6.65;;
74632;SDS011;63139;52.018;8.552;2023-09-07T02:58:21;13.25;;;7.78;;
74632;SDS011;63139;52.018;8.552;2023-09-07T03:00:52;11.38;;;6.80;;
74632;SDS011;63139;52.018;8.552;2023-09-07T03:03:23;15.32;;;7.88;;
74632;SDS011;63139;52.018;8.552;2023-09-07T03:05:52;14.02;;;8.13;;
74632;SDS011;63139;52.018;8.552;2023-09-07T03:08:21;9.38;;;6.68;;
74632;SDS011;63139;52.018;8.552;2023-09-07T03:10:50;10.52;;;7.40;;
74632;SDS011;63139;52.018;8.552;2023-09-07T03:13:17;11.68;;;7.38;;
74632;SDS011;63139;52.018;8.552;2023-09-07T03:15:45;13.65;;;9.18;;
74632;SDS011;63139;52.018;8.552;2023-09-07T03:18:14;12.68;;;8.27;;
74632;SDS011;63139;52.018;8.552;2023-09-07T03:20:42;9.32;;;7.45;;
74632;SDS011;63139;52.018;8.552;2023-09-07T03:23:10;8.48;;;6.80;;
74632;SDS011;63139;52.018;8.552;2023-09-07T03:25:38;9.73;;;7.30;;
74632;SDS011;63139;52.018;8.552;2023-09-07T03:28:05;6.82;;;6.10;;
74632;SDS011;63139;52.018;8.552;2023-09-07T03:30:35;9.25;;;6.88;;
74632;SDS011;63139;52.018;8.552;2023-09-07T03:33:04;8.90;;;7.15;;
74632;SDS011;63139;52.018;8.552;2023-09-07T03:35:33;8.90;;;6.97;;
74632;SDS011;63139;52.018;8.552;2023-09-07T03:38:03;9.90;;;6.03;;
74632;SDS011;63139;52.018;8.552;2023-09-07T03:40:31;7.53;;;5.72;;
74632;SDS011;63139;52.018;8.552;2023-09-07T03:42:58;9.27;;;6.78;;
74632;SDS011;63139;52.018;8.552;2023-09-07T03:45:26;9.60;;;6.38;;
74632;SDS011;63139;52.018;8.552;2023-09-07T03:47:54;8.60;;;6.45;;
74632;SDS011;63139;52.018;8.552;2023-09-07T03:50:23;10.32;;;7.47;;
74632;SDS011;63139;52.018;8.552;2023-09-07T03:52:52;8.75;;;7.00;;
74632;SDS011;63139;52.018;8.552;2023-09-07T03:55:21;9.65;;;7.65;;
74632;SDS011;63139;52.018;8.552;2023-09-07T03:57:49;10.65;;;7.35;;
74632;SDS011;63139;52.018;8.552;2023-09-07T04:00:17;11.50;;;7.25;;
74632;SDS011;63139;52.018;8.552;2023-09-07T04:02:47;8.35;;;7.03;;
74632;SDS011;63139;52.018;8.552;2023-09-07T04:05:15;11.00;;;8.23;;
74632;SDS011;63139;52.018;8.552;2023-09-07T04:07:44;11.85;;;7.80;;
74632;SDS011;63139;52.018;8.552;2023-09-07T04:10:13;11.88;;;8.13;;
74632;SDS011;63139;52.018;8.552;2023-09-07T04:12:41;10.48;;;7.80;;
74632;SDS011;63139;52.018;8.552;2023-09-07T04:15:10;12.98;;;8.90;;
74632;SDS011;63139;52.018;8.552;2023-09-07T04:17:38;11.55;;;8.10;;
74632;SDS011;63139;52.018;8.552;2023-09-07T04:20:08;12.15;;;8.68;;
74632;SDS011;63139;52.018;8.552;2023-09-07T04:22:38;8.75;;;7.65;;
74632;SDS011;63139;52.018;8.552;2023-09-07T04:25:06;10.88;;;8.65;;
74632;SDS011;63139;52.018;8.552;2023-09-07T04:27:36;11.48;;;8.20;;
74632;SDS011;63139;52.018;8.552;2023-09-07T04:30:05;15.30;;;8.98;;
74632;SDS011;63139;52.018;8.552;2023-09-07T04:32:35;10.30;;;8.27;;
74632;SDS011;63139;52.018;8.552;2023-09-07T04:35:04;11.63;;;8.18;;
74632;SDS011;63139;52.018;8.552;2023-09-07T04:37:32;9.73;;;7.55;;
74632;SDS011;63139;52.018;8.552;2023-09-07T04:40:00;11.10;;;7.50;;
74632;SDS011;63139;52.018;8.552;2023-09-07T04:42:28;9.82;;;7.40;;
74632;SDS011;63139;52.018;8.552;2023-09-07T04:44:57;9.70;;;7.40;;
74632;SDS011;63139;52.018;8.552;2023-09-07T04:47:25;8.80;;;7.57;;
74632;SDS011;63139;52.018;8.552;2023-09-07T04:49:53;9.68;;;8.20;;
74632;SDS011;63139;52.018;8.552;2023-09-07T04:52:21;9.07;;;7.28;;
74632;SDS011;63139;52.018;8.552;2023-09-07T04:54:49;12.18;;;8.52;;
74632;SDS011;63139;52.018;8.552;2023-09-07T04:57:18;11.40;;;8.38;;
74632;SDS011;63139;52.018;8.552;2023-09-07T04:59:47;10.00;;;8.13;;
74632;SDS011;63139;52.018;8.552;2023-09-07T05:02:16;9.90;;;7.95;;
74632;SDS011;63139;52.018;8.552;2023-09-07T05:04:44;9.75;;;7.70;;
74632;SDS011;63139;52.018;8.552;2023-09-07T05:07:12;11.60;;;9.02;;
74632;SDS011;63139;52.018;8.552;2023-09-07T05:09:41;11.15;;;9.10;;
74632;SDS011;63139;52.018;8.552;2023-09-07T05:12:09;11.07;;;9.32;;
74632;SDS011;63139;52.018;8.552;2023-09-07T05:14:38;11.77;;;8.85;;
74632;SDS011;63139;52.018;8.552;2023-09-07T05:17:07;10.93;;;8.73;;
74632;SDS011;63139;52.018;8.552;2023-09-07T05:19:37;13.05;;;10.63;;
74632;SDS011;63139;52.018;8.552;2023-09-07T05:22:07;14.05;;;9.80;;
74632;SDS011;63139;52.018;8.552;2023-09-07T05:24:37;12.68;;;9.57;;
74632;SDS011;63139;52.018;8.552;2023-09-07T05:27:05;14.35;;;9.90;;
74632;SDS011;63139;52.018;8.552;2023-09-07T05:29:33;10.13;;;8.50;;
74632;SDS011;63139;52.018;8.552;2023-09-07T05:32:00;12.52;;;8.55;;
74632;SDS011;63139;52.018;8.552;2023-09-07T05:34:30;14.20;;;8.85;;
74632;SDS011;63139;52.018;8.552;2023-09-07T05:37:00;8.43;;;7.22;;
74632;SDS011;63139;52.018;8.552;2023-09-07T05:39:27;11.40;;;8.98;;
74632;SDS011;63139;52.018;8.552;2023-09-07T05:41:56;13.63;;;8.63;;
74632;SDS011;63139;52.018;8.552;2023-09-07T05:44:24;14.85;;;9.15;;
74632;SDS011;63139;52.018;8.552;2023-09-07T05:46:52;9.45;;;7.95;;
74632;SDS011;63139;52.018;8.552;2023-09-07T05:49:20;10.95;;;8.52;;
74632;SDS011;63139;52.018;8.552;2023-09-07T05:51:48;10.63;;;7.80;;
74632;SDS011;63139;52.018;8.552;2023-09-07T05:54:17;12.52;;;8.60;;
74632;SDS011;63139;52.018;8.552;2023-09-07T05:56:45;13.15;;;9.20;;
74632;SDS011;63139;52.018;8.552;2023-09-07T05:59:13;12.63;;;9.40;;
74632;SDS011;63139;52.018;8.552;2023-09-07T06:01:41;12.50;;;10.13;;
74632;SDS011;63139;52.018;8.552;2023-09-07T06:04:09;11.82;;;8.73;;
74632;SDS011;63139;52.018;8.552;2023-09-07T06:06:37;12.43;;;9.73;;
74632;SDS011;63139;52.018;8.552;2023-09-07T06:09:05;12.13;;;9.70;;
74632;SDS011;63139;52.018;8.552;2023-09-07T06:11:34;14.13;;;10.25;;
74632;SDS011;63139;52.018;8.552;2023-09-07T06:14:04;13.63;;;9.90;;
74632;SDS011;63139;52.018;8.552;2023-09-07T06:16:31;12.57;;;10.00;;
74632;SDS011;63139;52.018;8.552;2023-09-07T06:18:59;12.30;;;10.05;;
74632;SDS011;63139;52.018;8.552;2023-09-07T06:21:27;12.60;;;10.25;;
74632;SDS011;63139;52.018;8.552;2023-09-07T06:23:56;15.93;;;10.93;;
74632;SDS011;63139;52.018;8.552;2023-09-07T06:26:24;13.90;;;10.57;;
74632;SDS011;63139;52.018;8.552;2023-09-07T06:28:53;12.57;;;9.88;;
74632;SDS011;63139;52.018;8.552;2023-09-07T06:31:21;11.18;;;9.52;;
74632;SDS011;63139;52.018;8.552;2023-09-07T06:33:49;13.75;;;10.70;;
74632;SDS011;63139;52.018;8.552;2023-09-07T06:36:17;16.08;;;10.45;;
74632;SDS011;63139;52.018;8.552;2023-09-07T06:39:03;12.15;;;9.95;;
74632;SDS011;63139;52.018;8.552;2023-09-07T06:41:31;12.82;;;9.95;;
74632;SDS011;63139;52.018;8.552;2023-09-07T06:44:01;17.08;;;8.90;;
74632;SDS011;63139;52.018;8.552;2023-09-07T06:46:31;14.73;;;9.07;;
74632;SDS011;63139;52.018;8.552;2023-09-07T06:48:58;10.68;;;7.95;;
74632;SDS011;63139;52.018;8.552;2023-09-07T06:51:26;8.85;;;7.90;;
74632;SDS011;63139;52.018;8.552;2023-09-07T06:53:54;9.98;;;7.90;;
74632;SDS011;63139;52.018;8.552;2023-09-07T06:56:25;9.98;;;8.30;;
74632;SDS011;63139;52.018;8.552;2023-09-07T06:58:53;8.68;;;7.32;;
74632;SDS011;63139;52.018;8.552;2023-09-07T07:01:24;8.77;;;7.18;;
74632;SDS011;63139;52.018;8.552;2023-09-07T07:03:52;9.48;;;7.25;;
74632;SDS011;63139;52.018;8.552;2023-09-07T07:06:20;11.48;;;7.82;;
74632;SDS011;63139;52.018;8.552;2023-09-07T07:08:48;7.82;;;7.03;;
74632;SDS011;63139;52.018;8.552;2023-09-07T07:11:16;9.00;;;6.97;;
74632;SDS011;63139;52.018;8.552;2023-09-07T07:13:44;9.75;;;7.22;;
74632;SDS011;63139;52.018;8.552;2023-09-07T07:16:12;8.43;;;7.28;;
74632;SDS011;63139;52.018;8.552;2023-09-07T07:18:41;9.20;;;6.78;;
74632;SDS011;63139;52.018;8.552;2023-09-07T07:21:10;8.88;;;6.88;;
74632;SDS011;63139;52.018;8.552;2023-09-07T07:23:38;8.95;;;6.80;;
74632;SDS011;63139;52.018;8.552;2023-09-07T07:26:06;7.90;;;6.18;;
74632;SDS011;63139;52.018;8.552;2023-09-07T07:28:35;8.32;;;6.22;;
74632;SDS011;63139;52.018;8.552;2023-09-07T07:31:07;9.90;;;6.53;;
74632;SDS011;63139;52.018;8.552;2023-09-07T07:33:37;7.60;;;6.38;;
74632;SDS011;63139;52.018;8.552;2023-09-07T07:36:06;6.40;;;5.72;;
74632;SDS011;63139;52.018;8.552;2023-09-07T07:38:35;8.95;;;6.57;;
74632;SDS011;63139;52.018;8.552;2023-09-07T07:41:03;7.45;;;6.47;;
74632;SDS011;63139;52.018;8.552;2023-09-07T07:43:32;6.88;;;5.70;;
74632;SDS011;63139;52.018;8.552;2023-09-07T07:46:01;7.20;;;6.05;;
74632;SDS011;63139;52.018;8.552;2023-09-07T07:48:30;8.70;;;6.05;;
74632;SDS011;63139;52.018;8.552;2023-09-07T07:51:02;6.63;;;5.50;;
74632;SDS011;63139;52.018;8.552;2023-09-07T07:53:37;6.43;;;5.82;;
74632;SDS011;63139;52.018;8.552;2023-09-07T07:56:05;7.00;;;5.25;;
74632;SDS011;63139;52.018;8.552;2023-09-07T07:58:33;5.95;;;5.38;;
74632;SDS011;63139;52.018;8.552;2023-09-07T08:01:01;6.80;;;5.57;;
74632;SDS011;63139;52.018;8.552;2023-09-07T08:03:31;6.53;;;4.97;;
74632;SDS011;63139;52.018;8.552;2023-09-07T08:06:00;5.40;;;4.90;;
74632;SDS011;63139;52.018;8.552;2023-09-07T08:08:28;5.47;;;4.93;;
74632;SDS011;63139;52.018;8.552;2023-09-07T08:10:58;5.70;;;4.55;;
74632;SDS011;63139;52.018;8.552;2023-09-07T08:13:26;7.75;;;4.70;;
74632;SDS011;63139;52.018;8.552;2023-09-07T08:15:55;5.28;;;4.78;;
74632;SDS011;63139;52.018;8.552;2023-09-07T08:18:23;5.10;;;4.60;;
74632;SDS011;63139;52.018;8.552;2023-09-07T08:20:51;7.50;;;4.78;;
74632;SDS011;63139;52.018;8.552;2023-09-07T08:23:20;5.20;;;4.68;;
74632;SDS011;63139;52.018;8.552;2023-09-07T08:25:48;5.22;;;4.00;;
74632;SDS011;63139;52.018;8.552;2023-09-07T08:28:20;5.80;;;4.85;;
74632;SDS011;63139;52.018;8.552;2023-09-07T08:30:49;5.80;;;4.32;;
74632;SDS011;63139;52.018;8.552;2023-09-07T08:33:20;6.20;;;4.43;;
74632;SDS011;63139;52.018;8.552;2023-09-07T08:35:52;5.00;;;4.28;;
74632;SDS011;63139;52.018;8.552;2023-09-07T08:38:22;4.72;;;4.32;;
74632;SDS011;63139;52.018;8.552;2023-09-07T08:40:54;5.10;;;4.28;;
74632;SDS011;63139;52.018;8.552;2023-09-07T08:43:24;6.32;;;4.00;;
74632;SDS011;63139;52.018;8.552;2023-09-07T08:45:55;7.72;;;4.70;;
74632;SDS011;63139;52.018;8.552;2023-09-07T08:48:30;8.90;;;4.43;;
74632;SDS011;63139;52.018;8.552;2023-09-07T08:50:58;4.47;;;4.03;;
74632;SDS011;63139;52.018;8.552;2023-09-07T08:53:27;6.65;;;4.82;;
74632;SDS011;63139;52.018;8.552;2023-09-07T08:55:57;5.15;;;4.03;;
74632;SDS011;63139;52.018;8.552;2023-09-07T08:58:28;5.93;;;4.45;;
74632;SDS011;63139;52.018;8.552;2023-09-07T09:00:58;7.95;;;3.45;;
74632;SDS011;63139;52.018;8.552;2023-09-07T09:03:29;5.22;;;3.85;;
74632;SDS011;63139;52.018;8.552;2023-09-07T09:05:57;5.32;;;3.53;;
74632;SDS011;63139;52.018;8.552;2023-09-07T09:08:25;5.85;;;4.07;;
74632;SDS011;63139;52.018;8.552;2023-09-07T09:10:59;5.15;;;4.13;;
74632;SDS011;63139;52.018;8.552;2023-09-07T09:13:31;6.47;;;4.28;;
74632;SDS011;63139;52.018;8.552;2023-09-07T09:16:03;4.25;;;3.85;;
74632;SDS011;63139;52.018;8.552;2023-09-07T09:18:31;4.22;;;3.83;;
74632;SDS011;63139;52.018;8.552;2023-09-07T09:20:59;4.43;;;3.95;;
74632;SDS011;63139;52.018;8.552;2023-09-07T09:23:29;5.82;;;4.00;;
74632;SDS011;63139;52.018;8.552;2023-09-07T09:25:59;4.25;;;3.65;;
74632;SDS011;63139;52.018;8.552;2023-09-07T09:28:31;3.92;;;3.40;;
74632;SDS011;63139;52.018;8.552;2023-09-07T09:31:01;4.40;;;3.38;;
74632;SDS011;63139;52.018;8.552;2023-09-07T09:33:30;4.13;;;3.72;;
74632;SDS011;63139;52.018;8.552;2023-09-07T09:35:58;4.13;;;3.60;;
74632;SDS011;63139;52.018;8.552;2023-09-07T09:38:27;4.85;;;3.97;;
74632;SDS011;63139;52.018;8.552;2023-09-07T09:40:56;4.68;;;3.80;;
74632;SDS011;63139;52.018;8.552;2023-09-07T09:43:25;5.55;;;3.60;;
74632;SDS011;63139;52.018;8.552;2023-09-07T09:45:54;4.72;;;3.80;;
74632;SDS011;63139;52.018;8.552;2023-09-07T09:48:22;6.47;;;3.53;;
74632;SDS011;63139;52.018;8.552;2023-09-07T09:50:50;7.03;;;4.00;;
74632;SDS011;63139;52.018;8.552;2023-09-07T09:53:18;6.75;;;3.80;;
74632;SDS011;63139;52.018;8.552;2023-09-07T09:55:48;5.50;;;3.42;;
74632;SDS011;63139;52.018;8.552;2023-09-07T09:58:16;4.32;;;3.65;;
74632;SDS011;63139;52.018;8.552;2023-09-07T10:00:45;4.82;;;3.90;;
74632;SDS011;63139;52.018;8.552;2023-09-07T10:03:17;5.55;;;3.90;;
74632;SDS011;63139;52.018;8.552;2023-09-07T10:05:50;4.85;;;3.78;;
74632;SDS011;63139;52.018;8.552;2023-09-07T10:08:18;6.07;;;3.80;;
74632;SDS011;63139;52.018;8.552;2023-09-07T10:10:52;5.60;;;3.95;;
74632;SDS011;63139;52.018;8.552;2023-09-07T10:13:28;6.15;;;3.85;;
74632;SDS011;63139;52.018;8.552;2023-09-07T10:16:00;4.03;;;3.63;;
74632;SDS011;63139;52.018;8.552;2023-09-07T10:18:35;9.38;;;3.65;;
74632;SDS011;63139;52.018;8.552;2023-09-07T10:21:04;4.70;;;3.65;;
74632;SDS011;63139;52.018;8.552;2023-09-07T10:23:36;4.68;;;3.67;;
74632;SDS011;63139;52.018;8.552;2023-09-07T10:26:05;5.45;;;3.72;;
74632;SDS011;63139;52.018;8.552;2023-09-07T10:28:39;4.45;;;3.58;;
74632;SDS011;63139;52.018;8.552;2023-09-07T10:31:12;3.55;;;3.25;;
74632;SDS011;63139;52.018;8.552;2023-09-07T10:33:42;5.07;;;4.15;;
74632;SDS011;63139;52.018;8.552;2023-09-07T10:36:19;3.80;;;3.15;;
74632;SDS011;63139;52.018;8.552;2023-09-07T10:38:48;5.30;;;3.30;;
74632;SDS011;63139;52.018;8.552;2023-09-07T10:41:19;7.88;;;3.47;;
74632;SDS011;63139;52.018;8.552;2023-09-07T10:43:47;7.80;;;3.80;;
74632;SDS011;63139;52.018;8.552;2023-09-07T10:46:18;4.13;;;3.47;;
74632;SDS011;63139;52.018;8.552;2023-09-07T10:48:49;4.43;;;3.97;;
74632;SDS011;63139;52.018;8.552;2023-09-07T10:51:18;3.72;;;3.33;;
74632;SDS011;63139;52.018;8.552;2023-09-07T10:53:46;4.55;;;3.10;;
74632;SDS011;63139;52.018;8.552;2023-09-07T10:56:14;6.03;;;3.42;;
74632;SDS011;63139;52.018;8.552;2023-09-07T10:58:42;5.38;;;3.40;;
74632;SDS011;63139;52.018;8.552;2023-09-07T11:01:10;3.92;;;2.85;;
74632;SDS011;63139;52.018;8.552;2023-09-07T11:03:41;3.50;;;3.20;;
74632;SDS011;63139;52.018;8.552;2023-09-07T11:06:12;4.20;;;3.40;;
74632;SDS011;63139;52.018;8.552;2023-09-07T11:08:43;3.53;;;3.13;;
74632;SDS011;63139;52.018;8.552;2023-09-07T11:11:11;3.50;;;3.20;;
74632;SDS011;63139;52.018;8.552;2023-09-07T11:13:40;3.50;;;3.13;;
74632;SDS011;63139;52.018;8.552;2023-09-07T11:16:08;4.15;;;3.00;;
74632;SDS011;63139;52.018;8.552;2023-09-07T11:18:36;5.55;;;3.30;;
74632;SDS011;63139;52.018;8.552;2023-09-07T11:21:04;4.10;;;3.58;;
74632;SDS011;63139;52.018;8.552;2023-09-07T11:23:35;4.55;;;3.15;;
74632;SDS011;63139;52.018;8.552;2023-09-07T11:26:05;5.10;;;3.17;;
74632;SDS011;63139;52.018;8.552;2023-09-07T11:28:33;3.50;;;3.20;;
74632;SDS011;63139;52.018;8.552;2023-09-07T11:31:01;3.45;;;3.15;;
74632;SDS011;63139;52.018;8.552;2023-09-07T11:33:31;4.25;;;3.40;;
74632;SDS011;63139;52.018;8.552;2023-09-07T11:35:59;8.68;;;3.10;;
74632;SDS011;63139;52.018;8.552;2023-09-07T11:38:28;5.00;;;3.45;;
74632;SDS011;63139;52.018;8.552;2023-09-07T11:40:59;4.40;;;3.40;;
74632;SDS011;63139;52.018;8.552;2023-09-07T11:43:26;3.75;;;3.25;;
74632;SDS011;63139;52.018;8.552;2023-09-07T11:45:54;4.68;;;3.22;;
74632;SDS011;63139;52.018;8.552;2023-09-07T11:48:22;3.88;;;2.85;;
74632;SDS011;63139;52.018;8.552;2023-09-07T11:50:50;4.80;;;3.30;;
74632;SDS011;63139;52.018;8.552;2023-09-07T11:53:18;3.95;;;3.05;;
74632;SDS011;63139;52.018;8.552;2023-09-07T11:55:46;3.97;;;2.70;;
74632;SDS011;63139;52.018;8.552;2023-09-07T11:58:15;3.65;;;2.97;;
74632;SDS011;63139;52.018;8.552;2023-09-07T12:00:42;3.00;;;2.72;;
74632;SDS011;63139;52.018;8.552;2023-09-07T12:03:10;4.03;;;3.00;;
74632;SDS011;63139;52.018;8.552;2023-09-07T12:05:38;3.13;;;2.83;;
74632;SDS011;63139;52.018;8.552;2023-09-07T12:08:08;8.05;;;3.50;;
74632;SDS011;63139;52.018;8.552;2023-09-07T12:10:36;2.95;;;2.65;;
74632;SDS011;63139;52.018;8.552;2023-09-07T12:13:03;5.25;;;3.20;;
74632;SDS011;63139;52.018;8.552;2023-09-07T12:15:32;3.50;;;3.20;;
74632;SDS011;63139;52.018;8.552;2023-09-07T12:18:01;5.63;;;3.10;;
74632;SDS011;63139;52.018;8.552;2023-09-07T12:20:29;3.25;;;2.95;;
74632;SDS011;63139;52.018;8.552;2023-09-07T12:22:57;3.42;;;2.90;;
74632;SDS011;63139;52.018;8.552;2023-09-07T12:25:25;3.30;;;2.92;;
74632;SDS011;63139;52.018;8.552;2023-09-07T12:27:53;2.85;;;2.65;;
74632;SDS011;63139;52.018;8.552;2023-09-07T12:30:21;6.60;;;3.30;;
74632;SDS011;63139;52.018;8.552;2023-09-07T12:32:52;3.38;;;2.55;;
74632;SDS011;63139;52.018;8.552;2023-09-07T12:35:20;3.10;;;2.80;;
74632;SDS011;63139;52.018;8.552;2023-09-07T12:37:48;4.45;;;3.00;;
74632;SDS011;63139;52.018;8.552;2023-09-07T12:40:16;3.45;;;3.08;;
74632;SDS011;63139;52.018;8.552;2023-09-07T12:42:44;3.22;;;2.95;;
74632;SDS011;63139;52.018;8.552;2023-09-07T12:45:13;4.65;;;3.10;;
74632;SDS011;63139;52.018;8.552;2023-09-07T12:47:41;4.25;;;3.30;;
74632;SDS011;63139;52.018;8.552;2023-09-07T12:50:10;5.25;;;3.08;;
74632;SDS011;63139;52.018;8.552;2023-09-07T12:52:38;4.80;;;3.55;;
74632;SDS011;63139;52.018;8.552;2023-09-07T12:55:06;5.18;;;3.22;;
74632;SDS011;63139;52.018;8.552;2023-09-07T12:57:34;12.52;;;3.50;;
74632;SDS011;63139;52.018;8.552;2023-09-07T13:00:03;4.13;;;3.40;;
74632;SDS011;63139;52.018;8.552;2023-09-07T13:02:32;4.97;;;3.45;;
74632;SDS011;63139;52.018;8.552;2023-09-07T13:05:00;4.72;;;2.97;;
74632;SDS011;63139;52.018;8.552;2023-09-07T13:07:33;4.15;;;2.90;;
74632;SDS011;63139;52.018;8.552;2023-09-07T13:10:01;6.20;;;3.00;;
74632;SDS011;63139;52.018;8.552;2023-09-07T13:12:31;4.07;;;2.90;;
74632;SDS011;63139;52.018;8.552;2023-09-07T13:14:59;4.25;;;3.28;;
74632;SDS011;63139;52.018;8.552;2023-09-07T13:17:27;4.03;;;3.63;;
74632;SDS011;63139;52.018;8.552;2023-09-07T13:19:55;4.13;;;3.47;;
74632;SDS011;63139;52.018;8.552;2023-09-07T13:22:23;5.40;;;3.42;;
74632;SDS011;63139;52.018;8.552;2023-09-07T13:24:52;3.40;;;3.10;;
74632;SDS011;63139;52.018;8.552;2023-09-07T13:27:20;4.28;;;3.13;;
74632;SDS011;63139;52.018;8.552;2023-09-07T13:29:48;4.07;;;3.10;;
74632;SDS011;63139;52.018;8.552;2023-09-07T13:32:16;5.20;;;3.00;;
74632;SDS011;63139;52.018;8.552;2023-09-07T13:34:44;6.20;;;3.00;;
74632;SDS011;63139;52.018;8.552;2023-09-07T13:37:12;3.20;;;2.80;;
74632;SDS011;63139;52.018;8.552;2023-09-07T13:39:40;4.50;;;2.90;;
74632;SDS011;63139;52.018;8.552;2023-09-07T13:42:09;5.07;;;3.10;;
74632;SDS011;63139;52.018;8.552;2023-09-07T13:44:37;3.13;;;2.85;;
74632;SDS011;63139;52.018;8.552;2023-09-07T13:47:06;5.40;;;3.30;;
74632;SDS011;63139;52.018;8.552;2023-09-07T13:49:35;5.50;;;3.10;;
74632;SDS011;63139;52.018;8.552;2023-09-07T13:52:03;3.28;;;2.97;;
74632;SDS011;63139;52.018;8.552;2023-09-07T13:54:31;3.20;;;2.92;;
74632;SDS011;63139;52.018;8.552;2023-09-07T13:57:00;3.78;;;3.00;;
74632;SDS011;63139;52.018;8.552;2023-09-07T13:59:29;4.15;;;3.00;;
74632;SDS011;63139;52.018;8.552;2023-09-07T14:02:00;4.05;;;3.30;;
74632;SDS011;63139;52.018;8.552;2023-09-07T14:04:28;3.70;;;3.00;;
74632;SDS011;63139;52.018;8.552;2023-09-07T14:06:57;4.07;;;3.67;;
74632;SDS011;63139;52.018;8.552;2023-09-07T14:09:25;3.92;;;3.28;;
74632;SDS011;63139;52.018;8.552;2023-09-07T14:11:53;3.33;;;3.03;;
74632;SDS011;63139;52.018;8.552;2023-09-07T14:14:20;3.83;;;2.92;;
74632;SDS011;63139;52.018;8.552;2023-09-07T14:16:50;4.50;;;2.92;;
74632;SDS011;63139;52.018;8.552;2023-09-07T14:19:23;3.33;;;2.90;;
74632;SDS011;63139;52.018;8.552;2023-09-07T14:21:53;3.00;;;2.70;;
74632;SDS011;63139;52.018;8.552;2023-09-07T14:24:21;3.47;;;3.17;;
74632;SDS011;63139;52.018;8.552;2023-09-07T14:26:48;3.40;;;2.85;;
74632;SDS011;63139;52.018;8.552;2023-09-07T14:29:16;3.78;;;3.25;;
74632;SDS011;63139;52.018;8.552;2023-09-07T14:31:45;4.68;;;2.78;;
74632;SDS011;63139;52.018;8.552;2023-09-07T14:34:14;3.90;;;2.92;;
74632;SDS011;63139;52.018;8.552;2023-09-07T14:36:42;4.68;;;3.08;;
74632;SDS011;63139;52.018;8.552;2023-09-07T14:39:10;2.92;;;2.53;;
74632;SDS011;63139;52.018;8.552;2023-09-07T14:41:38;3.42;;;2.80;;
74632;SDS011;63139;52.018;8.552;2023-09-07T14:44:06;2.80;;;2.60;;
74632;SDS011;63139;52.018;8.552;2023-09-07T14:46:35;3.08;;;2.78;;
74632;SDS011;63139;52.018;8.552;2023-09-07T14:49:03;4.65;;;3.00;;
74632;SDS011;63139;52.018;8.552;2023-09-07T14:51:32;3.25;;;2.95;;
74632;SDS011;63139;52.018;8.552;2023-09-07T14:54:00;3.08;;;2.75;;
74632;SDS011;63139;52.018;8.552;2023-09-07T14:56:29;3.65;;;2.80;;
74632;SDS011;63139;52.018;8.552;2023-09-07T14:59:01;3.28;;;2.97;;
74632;SDS011;63139;52.018;8.552;2023-09-07T15:01:29;3.10;;;2.80;;